sensor_id;sensor_type;location;lat;lon;timestamp;pressure;altitude;pressure_sealevel;temperature;humidity
33781;BME280;20097;50.832;19.100;2023-03-23T00:02:16;97756.66;;;10.78;100.00
33781;BME280;20097;50.832;19.100;2023-03-23T00:07:19;97743.38;;;10.73;100.00
33781;BME280;20097;50.832;19.100;2023-03-23T00:12:26;97733.53;;;10.75;100.00
33781;BME280;20097;50.832;19.100;2023-03-23T00:17:35;97741.00;;;10.78;100.00
33781;BME280;20097;50.832;19.100;2023-03-23T00:22:38;97740.81;;;10.79;100.00
33781;BME280;20097;50.832;19.100;2023-03-23T00:27:44;97730.97;;;10.81;100.00
33781;BME280;20097;50.832;19.100;2023-03-23T00:32:47;97736.31;;;10.73;100.00
33781;BME280;20097;50.832;19.100;2023-03-23T00:37:52;97730.06;;;10.68;100.00
33781;BME280;20097;50.832;19.100;2023-03-23T00:42:58;97726.63;;;10.67;100.00
33781;BME280;20097;50.832;19.100;2023-03-23T00:48:03;97727.59;;;10.60;100.00
33781;BME280;20097;50.832;19.100;2023-03-23T00:53:06;97729.38;;;10.59;100.00
33781;BME280;20097;50.832;19.100;2023-03-23T00:58:12;97728.56;;;10.59;100.00
33781;BME280;20097;50.832;19.100;2023-03-23T01:03:15;97728.16;;;10.55;100.00
33781;BME280;20097;50.832;19.100;2023-03-23T01:08:19;97725.69;;;10.54;100.00
33781;BME280;20097;50.832;19.100;2023-03-23T01:13:24;97719.06;;;10.51;100.00
33781;BME280;20097;50.832;19.100;2023-03-23T01:18:27;97730.50;;;10.50;100.00
33781;BME280;20097;50.832;19.100;2023-03-23T01:23:31;97712.59;;;10.47;100.00
33781;BME280;20097;50.832;19.100;2023-03-23T01:28:36;97718.00;;;10.46;100.00
33781;BME280;20097;50.832;19.100;2023-03-23T01:33:40;97716.41;;;10.45;100.00
33781;BME280;20097;50.832;19.100;2023-03-23T01:38:45;97714.16;;;10.42;100.00
33781;BME280;20097;50.832;19.100;2023-03-23T01:43:59;97705.66;;;10.33;100.00
33781;BME280;20097;50.832;19.100;2023-03-23T01:49:08;97718.25;;;10.30;100.00
33781;BME280;20097;50.832;19.100;2023-03-23T01:54:14;97718.63;;;10.27;100.00
33781;BME280;20097;50.832;19.100;2023-03-23T01:59:23;97710.16;;;10.25;100.00
33781;BME280;20097;50.832;19.100;2023-03-23T02:04:43;97712.19;;;10.23;100.00
33781;BME280;20097;50.832;19.100;2023-03-23T02:09:46;97702.34;;;10.25;100.00
33781;BME280;20097;50.832;19.100;2023-03-23T02:14:51;97706.59;;;10.26;100.00
33781;BME280;20097;50.832;19.100;2023-03-23T02:25:38;97706.00;;;10.09;100.00
33781;BME280;20097;50.832;19.100;2023-03-23T02:30:54;97701.63;;;10.10;100.00
33781;BME280;20097;50.832;19.100;2023-03-23T02:36:03;97700.81;;;9.95;100.00
33781;BME280;20097;50.832;19.100;2023-03-23T02:41:08;97710.09;;;9.83;100.00
33781;BME280;20097;50.832;19.100;2023-03-23T02:46:12;97713.13;;;9.86;100.00
33781;BME280;20097;50.832;19.100;2023-03-23T02:51:18;97712.09;;;9.81;100.00
33781;BME280;20097;50.832;19.100;2023-03-23T02:56:23;97710.56;;;9.71;100.00
33781;BME280;20097;50.832;19.100;2023-03-23T03:01:57;97712.91;;;9.66;100.00
33781;BME280;20097;50.832;19.100;2023-03-23T03:07:19;97694.13;;;9.56;100.00
33781;BME280;20097;50.832;19.100;2023-03-23T03:12:31;97683.19;;;9.46;100.00
33781;BME280;20097;50.832;19.100;2023-03-23T03:17:40;97685.28;;;9.36;100.00
33781;BME280;20097;50.832;19.100;2023-03-23T03:22:47;97684.75;;;9.26;100.00
33781;BME280;20097;50.832;19.100;2023-03-23T03:27:51;97678.16;;;9.16;100.00
33781;BME280;20097;50.832;19.100;2023-03-23T03:33:03;97686.88;;;9.08;100.00
33781;BME280;20097;50.832;19.100;2023-03-23T03:38:09;97684.09;;;8.95;100.00
33781;BME280;20097;50.832;19.100;2023-03-23T03:43:14;97688.19;;;8.90;100.00
33781;BME280;20097;50.832;19.100;2023-03-23T03:48:17;97685.59;;;8.90;100.00
33781;BME280;20097;50.832;19.100;2023-03-23T03:53:22;97673.84;;;8.94;100.00
33781;BME280;20097;50.832;19.100;2023-03-23T03:58:26;97681.84;;;8.92;100.00
33781;BME280;20097;50.832;19.100;2023-03-23T04:03:54;97683.72;;;8.98;100.00
33781;BME280;20097;50.832;19.100;2023-03-23T04:09:13;97681.59;;;9.02;100.00
33781;BME280;20097;50.832;19.100;2023-03-23T04:14:16;97679.06;;;9.08;100.00
33781;BME280;20097;50.832;19.100;2023-03-23T04:19:20;97670.91;;;9.11;100.00
33781;BME280;20097;50.832;19.100;2023-03-23T04:24:25;97662.28;;;9.11;100.00
33781;BME280;20097;50.832;19.100;2023-03-23T04:29:30;97662.91;;;9.13;100.00
33781;BME280;20097;50.832;19.100;2023-03-23T04:34:55;97670.34;;;9.16;100.00
33781;BME280;20097;50.832;19.100;2023-03-23T04:40:07;97669.03;;;9.20;100.00
33781;BME280;20097;50.832;19.100;2023-03-23T04:45:17;97675.66;;;9.22;100.00
33781;BME280;20097;50.832;19.100;2023-03-23T04:50:28;97661.66;;;9.23;100.00
33781;BME280;20097;50.832;19.100;2023-03-23T04:55:39;97663.00;;;9.19;100.00
33781;BME280;20097;50.832;19.100;2023-03-23T05:00:49;97664.63;;;9.20;100.00
33781;BME280;20097;50.832;19.100;2023-03-23T05:05:54;97670.09;;;9.25;100.00
33781;BME280;20097;50.832;19.100;2023-03-23T05:11:00;97667.41;;;9.33;100.00
33781;BME280;20097;50.832;19.100;2023-03-23T05:16:08;97657.22;;;9.38;100.00
33781;BME280;20097;50.832;19.100;2023-03-23T05:21:14;97666.59;;;9.47;100.00
33781;BME280;20097;50.832;19.100;2023-03-23T05:26:23;97672.69;;;9.54;100.00
33781;BME280;20097;50.832;19.100;2023-03-23T05:31:31;97674.81;;;9.65;100.00
33781;BME280;20097;50.832;19.100;2023-03-23T05:36:34;97665.88;;;9.74;100.00
33781;BME280;20097;50.832;19.100;2023-03-23T05:41:46;97664.81;;;9.84;100.00
33781;BME280;20097;50.832;19.100;2023-03-23T05:46:49;97671.13;;;9.96;100.00
33781;BME280;20097;50.832;19.100;2023-03-23T05:51:53;97663.00;;;10.05;100.00
33781;BME280;20097;50.832;19.100;2023-03-23T05:56:58;97661.94;;;10.14;100.00
33781;BME280;20097;50.832;19.100;2023-03-23T06:02:20;97669.81;;;10.21;100.00
33781;BME280;20097;50.832;19.100;2023-03-23T06:07:26;97673.13;;;10.29;100.00
33781;BME280;20097;50.832;19.100;2023-03-23T06:12:41;97669.75;;;10.35;100.00
33781;BME280;20097;50.832;19.100;2023-03-23T06:17:58;97670.06;;;10.47;100.00
33781;BME280;20097;50.832;19.100;2023-03-23T06:23:08;97670.19;;;10.60;100.00
33781;BME280;20097;50.832;19.100;2023-03-23T06:28:13;97668.66;;;10.72;100.00
33781;BME280;20097;50.832;19.100;2023-03-23T06:33:22;97661.50;;;10.80;100.00
33781;BME280;20097;50.832;19.100;2023-03-23T06:38:43;97660.56;;;10.94;100.00
33781;BME280;20097;50.832;19.100;2023-03-23T06:43:49;97666.06;;;11.06;100.00
33781;BME280;20097;50.832;19.100;2023-03-23T06:48:59;97678.78;;;11.16;100.00
33781;BME280;20097;50.832;19.100;2023-03-23T06:54:14;97684.72;;;11.31;100.00
33781;BME280;20097;50.832;19.100;2023-03-23T06:59:21;97690.78;;;11.38;100.00
33781;BME280;20097;50.832;19.100;2023-03-23T07:04:24;97686.41;;;11.45;100.00
33781;BME280;20097;50.832;19.100;2023-03-23T07:09:45;97688.84;;;11.53;100.00
33781;BME280;20097;50.832;19.100;2023-03-23T07:14:52;97693.16;;;11.67;100.00
33781;BME280;20097;50.832;19.100;2023-03-23T07:19:55;97693.41;;;11.78;100.00
33781;BME280;20097;50.832;19.100;2023-03-23T07:24:59;97686.84;;;12.02;100.00
33781;BME280;20097;50.832;19.100;2023-03-23T07:30:10;97693.56;;;12.30;100.00
33781;BME280;20097;50.832;19.100;2023-03-23T07:35:13;97700.22;;;12.53;96.60
33781;BME280;20097;50.832;19.100;2023-03-23T07:40:34;97698.44;;;12.73;93.06
33781;BME280;20097;50.832;19.100;2023-03-23T07:45:51;97695.19;;;12.84;91.13
33781;BME280;20097;50.832;19.100;2023-03-23T07:50:58;97695.59;;;12.94;90.67
33781;BME280;20097;50.832;19.100;2023-03-23T07:56:05;97692.41;;;13.05;91.05
33781;BME280;20097;50.832;19.100;2023-03-23T08:01:25;97681.50;;;13.14;91.69
33781;BME280;20097;50.832;19.100;2023-03-23T08:06:51;97680.69;;;13.20;91.10
33781;BME280;20097;50.832;19.100;2023-03-23T08:12:08;97679.84;;;13.39;90.13
33781;BME280;20097;50.832;19.100;2023-03-23T08:17:43;97677.34;;;14.08;84.65
33781;BME280;20097;50.832;19.100;2023-03-23T08:22:56;97669.66;;;14.69;75.97
33781;BME280;20097;50.832;19.100;2023-03-23T08:28:03;97654.13;;;15.10;73.20
33781;BME280;20097;50.832;19.100;2023-03-23T08:33:28;97655.28;;;15.39;71.96
33781;BME280;20097;50.832;19.100;2023-03-23T08:38:56;97639.13;;;15.53;71.55
33781;BME280;20097;50.832;19.100;2023-03-23T08:44:25;97656.22;;;15.44;68.26
33781;BME280;20097;50.832;19.100;2023-03-23T08:49:49;97657.75;;;15.52;66.93
33781;BME280;20097;50.832;19.100;2023-03-23T08:55:23;97646.22;;;15.71;66.87
33781;BME280;20097;50.832;19.100;2023-03-23T09:00:46;97645.41;;;16.00;66.66
33781;BME280;20097;50.832;19.100;2023-03-23T09:06:01;97649.72;;;16.24;65.82
33781;BME280;20097;50.832;19.100;2023-03-23T09:11:13;97647.59;;;16.32;63.75
33781;BME280;20097;50.832;19.100;2023-03-23T09:16:17;97648.34;;;16.63;63.49
33781;BME280;20097;50.832;19.100;2023-03-23T09:21:22;97651.00;;;16.74;61.01
33781;BME280;20097;50.832;19.100;2023-03-23T09:26:25;97647.91;;;17.00;59.86
33781;BME280;20097;50.832;19.100;2023-03-23T09:31:28;97637.47;;;17.28;59.26
33781;BME280;20097;50.832;19.100;2023-03-23T09:36:34;97642.66;;;17.74;58.88
33781;BME280;20097;50.832;19.100;2023-03-23T09:42:12;97620.53;;;17.75;57.12
33781;BME280;20097;50.832;19.100;2023-03-23T09:47:21;97632.44;;;17.78;57.69
33781;BME280;20097;50.832;19.100;2023-03-23T09:52:34;97639.09;;;17.81;57.31
33781;BME280;20097;50.832;19.100;2023-03-23T09:57:42;97620.06;;;18.07;56.28
33781;BME280;20097;50.832;19.100;2023-03-23T10:02:52;97622.03;;;18.00;56.15
33781;BME280;20097;50.832;19.100;2023-03-23T10:07:57;97614.06;;;18.11;56.77
33781;BME280;20097;50.832;19.100;2023-03-23T10:13:03;97604.06;;;18.13;56.47
33781;BME280;20097;50.832;19.100;2023-03-23T10:18:12;97600.47;;;18.36;55.90
33781;BME280;20097;50.832;19.100;2023-03-23T10:23:39;97613.94;;;18.34;53.42
33781;BME280;20097;50.832;19.100;2023-03-23T10:28:47;97611.88;;;18.25;53.54
33781;BME280;20097;50.832;19.100;2023-03-23T10:33:53;97610.59;;;18.55;54.31
33781;BME280;20097;50.832;19.100;2023-03-23T10:39:00;97622.44;;;18.53;53.57
33781;BME280;20097;50.832;19.100;2023-03-23T10:44:09;97613.59;;;18.31;53.67
33781;BME280;20097;50.832;19.100;2023-03-23T10:49:17;97612.38;;;18.22;53.76
33781;BME280;20097;50.832;19.100;2023-03-23T10:54:27;97613.59;;;18.31;54.40
33781;BME280;20097;50.832;19.100;2023-03-23T10:59:39;97617.16;;;18.25;53.92
33781;BME280;20097;50.832;19.100;2023-03-23T11:04:46;97614.81;;;17.95;55.31
33781;BME280;20097;50.832;19.100;2023-03-23T11:09:56;97609.69;;;18.05;54.83
33781;BME280;20097;50.832;19.100;2023-03-23T11:15:20;97619.97;;;18.02;54.68
33781;BME280;20097;50.832;19.100;2023-03-23T11:20:26;97626.00;;;17.86;54.64
33781;BME280;20097;50.832;19.100;2023-03-23T11:25:31;97624.84;;;18.10;54.48
33781;BME280;20097;50.832;19.100;2023-03-23T11:30:35;97624.84;;;18.10;54.56
33781;BME280;20097;50.832;19.100;2023-03-23T11:35:38;97620.00;;;17.90;54.75
33781;BME280;20097;50.832;19.100;2023-03-23T11:40:50;97622.53;;;18.30;55.30
33781;BME280;20097;50.832;19.100;2023-03-23T11:46:01;97628.75;;;18.07;55.19
33781;BME280;20097;50.832;19.100;2023-03-23T11:51:13;97624.75;;;18.05;55.82
33781;BME280;20097;50.832;19.100;2023-03-23T11:56:23;97624.44;;;18.01;55.84
33781;BME280;20097;50.832;19.100;2023-03-23T12:01:37;97632.41;;;17.90;56.07
33781;BME280;20097;50.832;19.100;2023-03-23T12:06:48;97622.59;;;18.02;55.55
33781;BME280;20097;50.832;19.100;2023-03-23T12:12:02;97613.94;;;18.34;55.43
33781;BME280;20097;50.832;19.100;2023-03-23T12:17:17;97627.63;;;18.48;55.37
33781;BME280;20097;50.832;19.100;2023-03-23T12:22:31;97627.47;;;18.54;55.69
33781;BME280;20097;50.832;19.100;2023-03-23T12:27:42;97624.94;;;18.15;55.77
33781;BME280;20097;50.832;19.100;2023-03-23T12:32:58;97616.56;;;17.90;56.85
33781;BME280;20097;50.832;19.100;2023-03-23T12:38:18;97626.97;;;17.96;57.94
33781;BME280;20097;50.832;19.100;2023-03-23T12:43:28;97626.00;;;17.86;57.21
33781;BME280;20097;50.832;19.100;2023-03-23T12:48:37;97621.34;;;17.64;57.77
33781;BME280;20097;50.832;19.100;2023-03-23T12:53:46;97624.50;;;17.78;57.83
33781;BME280;20097;50.832;19.100;2023-03-23T12:58:59;97605.38;;;17.99;57.36
33781;BME280;20097;50.832;19.100;2023-03-23T13:04:05;97595.75;;;18.21;57.40
33781;BME280;20097;50.832;19.100;2023-03-23T13:09:14;97591.00;;;18.07;56.26
33781;BME280;20097;50.832;19.100;2023-03-23T13:14:29;97608.25;;;17.98;56.63
33781;BME280;20097;50.832;19.100;2023-03-23T13:19:55;97599.75;;;17.96;56.58
33781;BME280;20097;50.832;19.100;2023-03-23T13:25:06;97598.53;;;17.87;56.86
33781;BME280;20097;50.832;19.100;2023-03-23T13:30:21;97593.97;;;17.82;57.08
33781;BME280;20097;50.832;19.100;2023-03-23T13:35:26;97595.25;;;17.79;57.44
33781;BME280;20097;50.832;19.100;2023-03-23T13:40:36;97588.56;;;17.89;57.96
33781;BME280;20097;50.832;19.100;2023-03-23T13:45:47;97600.66;;;18.01;58.30
33781;BME280;20097;50.832;19.100;2023-03-23T13:50:53;97600.94;;;18.16;58.00
33781;BME280;20097;50.832;19.100;2023-03-23T13:56:06;97605.28;;;17.94;58.70
33781;BME280;20097;50.832;19.100;2023-03-23T14:01:14;97605.03;;;17.79;59.42
33781;BME280;20097;50.832;19.100;2023-03-23T14:06:20;97608.34;;;17.46;59.59
33781;BME280;20097;50.832;19.100;2023-03-23T14:11:50;97623.00;;;17.42;61.02
33781;BME280;20097;50.832;19.100;2023-03-23T14:17:07;97622.41;;;17.40;60.92
33781;BME280;20097;50.832;19.100;2023-03-23T14:22:19;97609.13;;;17.24;59.72
33781;BME280;20097;50.832;19.100;2023-03-23T14:27:23;97617.16;;;17.17;60.44
33781;BME280;20097;50.832;19.100;2023-03-23T14:32:29;97620.84;;;17.05;59.72
33781;BME280;20097;50.832;19.100;2023-03-23T14:37:34;97614.09;;;17.09;59.38
33781;BME280;20097;50.832;19.100;2023-03-23T14:42:38;97612.38;;;17.03;59.18
33781;BME280;20097;50.832;19.100;2023-03-23T14:47:45;97616.41;;;16.94;58.68
33781;BME280;20097;50.832;19.100;2023-03-23T14:52:49;97618.81;;;16.95;59.34
33781;BME280;20097;50.832;19.100;2023-03-23T14:57:52;97623.97;;;16.90;59.03
33781;BME280;20097;50.832;19.100;2023-03-23T15:02:57;97616.28;;;16.89;58.46
33781;BME280;20097;50.832;19.100;2023-03-23T15:08:03;97624.78;;;16.79;58.48
33781;BME280;20097;50.832;19.100;2023-03-23T15:13:11;97615.59;;;16.82;58.70
33781;BME280;20097;50.832;19.100;2023-03-23T15:18:29;97602.75;;;16.85;58.99
33781;BME280;20097;50.832;19.100;2023-03-23T15:23:33;97605.84;;;16.82;59.21
33781;BME280;20097;50.832;19.100;2023-03-23T15:28:40;97606.78;;;16.76;59.46
33781;BME280;20097;50.832;19.100;2023-03-23T15:33:44;97609.28;;;16.60;59.91
33781;BME280;20097;50.832;19.100;2023-03-23T15:38:47;97603.53;;;16.51;60.34
33781;BME280;20097;50.832;19.100;2023-03-23T15:43:53;97610.63;;;16.39;60.56
33781;BME280;20097;50.832;19.100;2023-03-23T15:49:07;97613.25;;;16.39;60.96
33781;BME280;20097;50.832;19.100;2023-03-23T15:54:13;97615.41;;;16.30;61.20
33781;BME280;20097;50.832;19.100;2023-03-23T15:59:17;97619.16;;;16.23;61.78
33781;BME280;20097;50.832;19.100;2023-03-23T16:04:22;97618.47;;;16.16;62.45
33781;BME280;20097;50.832;19.100;2023-03-23T16:09:28;97616.94;;;16.08;62.38
33781;BME280;20097;50.832;19.100;2023-03-23T16:14:33;97612.13;;;16.05;63.30
33781;BME280;20097;50.832;19.100;2023-03-23T16:19:38;97616.91;;;15.97;63.98
33781;BME280;20097;50.832;19.100;2023-03-23T16:24:43;97621.00;;;15.93;64.28
33781;BME280;20097;50.832;19.100;2023-03-23T16:29:48;97618.25;;;15.88;64.21
33781;BME280;20097;50.832;19.100;2023-03-23T16:35:07;97614.19;;;15.74;65.08
33781;BME280;20097;50.832;19.100;2023-03-23T16:40:12;97611.06;;;15.65;65.22
33781;BME280;20097;50.832;19.100;2023-03-23T16:45:17;97607.41;;;15.48;67.48
33781;BME280;20097;50.832;19.100;2023-03-23T16:50:23;97617.72;;;15.32;67.56
33781;BME280;20097;50.832;19.100;2023-03-23T16:55:27;97614.41;;;15.18;67.89
33781;BME280;20097;50.832;19.100;2023-03-23T17:00:33;97617.56;;;15.08;69.23
33781;BME280;20097;50.832;19.100;2023-03-23T17:05:39;97615.28;;;14.94;70.05
33781;BME280;20097;50.832;19.100;2023-03-23T17:10:45;97621.88;;;14.78;71.34
33781;BME280;20097;50.832;19.100;2023-03-23T17:15:52;97621.00;;;14.66;72.24
33781;BME280;20097;50.832;19.100;2023-03-23T17:20:58;97601.91;;;14.53;75.40
33781;BME280;20097;50.832;19.100;2023-03-23T17:26:02;97606.28;;;14.41;75.89
33781;BME280;20097;50.832;19.100;2023-03-23T17:31:06;97607.38;;;14.20;77.65
33781;BME280;20097;50.832;19.100;2023-03-23T17:36:12;97621.75;;;14.18;76.87
33781;BME280;20097;50.832;19.100;2023-03-23T17:41:16;97623.81;;;14.09;79.64
33781;BME280;20097;50.832;19.100;2023-03-23T17:46:23;97624.63;;;14.10;78.31
33781;BME280;20097;50.832;19.100;2023-03-23T17:51:28;97637.03;;;13.96;82.60
33781;BME280;20097;50.832;19.100;2023-03-23T17:56:33;97628.81;;;13.86;85.27
33781;BME280;20097;50.832;19.100;2023-03-23T18:01:37;97632.91;;;13.75;85.10
33781;BME280;20097;50.832;19.100;2023-03-23T18:06:43;97634.34;;;13.65;85.89
33781;BME280;20097;50.832;19.100;2023-03-23T18:11:47;97649.16;;;13.53;88.25
33781;BME280;20097;50.832;19.100;2023-03-23T18:16:52;97651.16;;;13.51;87.57
33781;BME280;20097;50.832;19.100;2023-03-23T18:21:58;97658.19;;;13.57;85.43
33781;BME280;20097;50.832;19.100;2023-03-23T18:27:03;97657.97;;;13.58;87.83
33781;BME280;20097;50.832;19.100;2023-03-23T18:32:07;97665.44;;;13.55;87.20
33781;BME280;20097;50.832;19.100;2023-03-23T18:37:12;97660.84;;;13.50;88.77
33781;BME280;20097;50.832;19.100;2023-03-23T18:42:17;97671.94;;;13.52;89.13
33781;BME280;20097;50.832;19.100;2023-03-23T18:47:21;97675.16;;;13.54;88.68
33781;BME280;20097;50.832;19.100;2023-03-23T18:52:27;97680.41;;;13.54;89.04
33781;BME280;20097;50.832;19.100;2023-03-23T18:57:32;97673.72;;;13.52;90.24
33781;BME280;20097;50.832;19.100;2023-03-23T19:02:37;97671.13;;;13.52;90.24
33781;BME280;20097;50.832;19.100;2023-03-23T19:07:43;97666.47;;;13.54;89.65
33781;BME280;20097;50.832;19.100;2023-03-23T19:12:48;97668.06;;;13.55;90.26
33781;BME280;20097;50.832;19.100;2023-03-23T19:17:53;97667.50;;;13.53;90.56
33781;BME280;20097;50.832;19.100;2023-03-23T19:22:59;97681.00;;;13.50;91.84
33781;BME280;20097;50.832;19.100;2023-03-23T19:28:03;97685.06;;;13.46;92.25
33781;BME280;20097;50.832;19.100;2023-03-23T19:33:11;97680.22;;;13.43;93.64
33781;BME280;20097;50.832;19.100;2023-03-23T19:38:17;97678.59;;;13.42;93.74
33781;BME280;20097;50.832;19.100;2023-03-23T19:43:23;97679.63;;;13.41;93.44
33781;BME280;20097;50.832;19.100;2023-03-23T19:48:29;97688.09;;;13.43;94.16
33781;BME280;20097;50.832;19.100;2023-03-23T19:53:36;97685.25;;;13.44;94.95
33781;BME280;20097;50.832;19.100;2023-03-23T19:58:41;97697.56;;;13.44;95.26
33781;BME280;20097;50.832;19.100;2023-03-23T20:03:46;97700.19;;;13.44;96.08
33781;BME280;20097;50.832;19.100;2023-03-23T20:08:51;97694.53;;;13.47;96.14
33781;BME280;20097;50.832;19.100;2023-03-23T20:13:57;97703.81;;;13.49;96.37
33781;BME280;20097;50.832;19.100;2023-03-23T20:19:01;97705.22;;;13.45;97.41
33781;BME280;20097;50.832;19.100;2023-03-23T20:24:08;97706.84;;;13.46;96.91
33781;BME280;20097;50.832;19.100;2023-03-23T20:29:13;97708.88;;;13.44;97.82
33781;BME280;20097;50.832;19.100;2023-03-23T20:34:18;97695.16;;;13.42;98.68
33781;BME280;20097;50.832;19.100;2023-03-23T20:39:32;97691.72;;;13.42;99.62
33781;BME280;20097;50.832;19.100;2023-03-23T20:44:36;97691.13;;;13.40;100.00
33781;BME280;20097;50.832;19.100;2023-03-23T20:49:41;97692.34;;;13.37;100.00
33781;BME280;20097;50.832;19.100;2023-03-23T20:54:56;97701.00;;;13.38;100.00
33781;BME280;20097;50.832;19.100;2023-03-23T21:00:00;97687.28;;;13.36;100.00
33781;BME280;20097;50.832;19.100;2023-03-23T21:05:08;97703.03;;;13.36;100.00
33781;BME280;20097;50.832;19.100;2023-03-23T21:10:14;97702.41;;;13.34;100.00
33781;BME280;20097;50.832;19.100;2023-03-23T21:15:19;97710.28;;;13.34;100.00
33781;BME280;20097;50.832;19.100;2023-03-23T21:20:24;97709.66;;;13.32;100.00
33781;BME280;20097;50.832;19.100;2023-03-23T21:25:30;97715.53;;;13.27;100.00
33781;BME280;20097;50.832;19.100;2023-03-23T21:30:37;97714.56;;;13.22;100.00
33781;BME280;20097;50.832;19.100;2023-03-23T21:35:43;97715.75;;;13.26;100.00
33781;BME280;20097;50.832;19.100;2023-03-23T21:40:49;97713.31;;;13.31;100.00
33781;BME280;20097;50.832;19.100;2023-03-23T21:45:55;97707.03;;;13.38;99.47
33781;BME280;20097;50.832;19.100;2023-03-23T21:51:04;97706.44;;;13.43;98.92
33781;BME280;20097;50.832;19.100;2023-03-23T21:56:10;97717.72;;;13.43;98.05
33781;BME280;20097;50.832;19.100;2023-03-23T22:01:16;97713.69;;;13.41;98.74
33781;BME280;20097;50.832;19.100;2023-03-23T22:06:22;97713.91;;;13.39;98.20
33781;BME280;20097;50.832;19.100;2023-03-23T22:11:30;97704.59;;;13.50;97.29
33781;BME280;20097;50.832;19.100;2023-03-23T22:16:34;97695.31;;;13.54;96.82
33781;BME280;20097;50.832;19.100;2023-03-23T22:21:39;97698.13;;;13.59;95.88
33781;BME280;20097;50.832;19.100;2023-03-23T22:26:45;97700.34;;;13.62;95.50
33781;BME280;20097;50.832;19.100;2023-03-23T22:31:50;97704.34;;;13.64;95.36
33781;BME280;20097;50.832;19.100;2023-03-23T22:36:54;97716.88;;;13.62;96.01
33781;BME280;20097;50.832;19.100;2023-03-23T22:42:00;97721.31;;;13.62;95.96
33781;BME280;20097;50.832;19.100;2023-03-23T22:47:04;97718.91;;;13.60;95.88
33781;BME280;20097;50.832;19.100;2023-03-23T22:52:09;97715.88;;;13.57;96.23
33781;BME280;20097;50.832;19.100;2023-03-23T22:57:14;97704.78;;;13.55;96.55
33781;BME280;20097;50.832;19.100;2023-03-23T23:02:19;97712.66;;;13.55;96.93
33781;BME280;20097;50.832;19.100;2023-03-23T23:07:23;97722.56;;;13.53;96.70
33781;BME280;20097;50.832;19.100;2023-03-23T23:12:29;97716.09;;;13.49;97.52
33781;BME280;20097;50.832;19.100;2023-03-23T23:17:37;97714.91;;;13.38;98.38
33781;BME280;20097;50.832;19.100;2023-03-23T23:22:41;97725.22;;;13.33;98.84
33781;BME280;20097;50.832;19.100;2023-03-23T23:27:48;97715.31;;;13.29;98.92
33781;BME280;20097;50.832;19.100;2023-03-23T23:32:52;97715.72;;;13.32;98.80
33781;BME280;20097;50.832;19.100;2023-03-23T23:37:56;97718.34;;;13.26;98.97
33781;BME280;20097;50.832;19.100;2023-03-23T23:43:03;97723.81;;;13.24;99.11
33781;BME280;20097;50.832;19.100;2023-03-23T23:48:07;97719.78;;;13.22;99.21
33781;BME280;20097;50.832;19.100;2023-03-23T23:53:12;97723.00;;;13.24;98.97
33781;BME280;20097;50.832;19.100;2023-03-23T23:58:18;97720.78;;;13.21;99.41
